createdAt,value
2018-04-30T00:02:15.466Z,77.00
2018-04-30T00:04:43.067Z,77.00
2018-04-30T00:07:10.616Z,77.10
2018-04-30T00:09:38.130Z,77.20
2018-04-30T00:12:05.666Z,77.30
2018-04-30T00:14:33.301Z,77.30
2018-04-30T00:17:01.749Z,77.50
2018-04-30T00:19:29.243Z,77.40
2018-04-30T00:21:56.800Z,77.60
2018-04-30T00:24:24.517Z,77.60
2018-04-30T00:26:52.117Z,77.70
2018-04-30T00:29:19.633Z,77.80
2018-04-30T00:31:47.151Z,78.10
2018-04-30T00:34:15.137Z,78.20
2018-04-30T00:36:43.429Z,78.40
2018-04-30T00:39:11.790Z,78.30
2018-04-30T00:41:40.205Z,78.70
2018-04-30T00:44:07.731Z,78.70
2018-04-30T00:46:35.620Z,79.00
2018-04-30T00:49:03.277Z,79.10
2018-04-30T00:51:30.805Z,79.50
2018-04-30T00:53:58.460Z,79.60
2018-04-30T00:56:26.287Z,79.90
2018-04-30T00:58:53.821Z,80.10
2018-04-30T01:01:21.957Z,80.30
2018-04-30T01:03:49.592Z,80.40
2018-04-30T01:06:17.321Z,80.70
2018-04-30T01:08:44.880Z,81.00
2018-04-30T01:11:13.165Z,81.40
2018-04-30T01:13:40.714Z,81.40
2018-04-30T01:16:09.607Z,82.10
2018-04-30T01:18:38.095Z,82.30
2018-04-30T01:21:05.823Z,82.30
2018-04-30T01:23:33.359Z,82.50
2018-04-30T01:26:00.910Z,82.90
2018-04-30T01:28:28.773Z,83.20
2018-04-30T01:30:56.330Z,83.60
2018-04-30T01:33:23.896Z,83.90
2018-04-30T01:35:51.810Z,83.90
2018-04-30T01:38:19.373Z,84.40
2018-04-30T01:40:46.882Z,84.80
2018-04-30T01:43:14.435Z,85.10
2018-04-30T01:45:42.028Z,85.30
2018-04-30T01:48:09.773Z,85.80
2018-04-30T01:50:37.287Z,86.10
2018-04-30T01:53:05.607Z,86.70
2018-04-30T01:55:33.207Z,86.60
2018-04-30T01:58:00.716Z,87.00
2018-04-30T02:00:28.482Z,87.20
2018-04-30T02:02:56.082Z,87.30
2018-04-30T02:05:23.694Z,87.70
2018-04-30T02:07:51.351Z,87.90
2018-04-30T02:10:18.974Z,88.20
2018-04-30T02:12:46.584Z,88.30
2018-04-30T02:15:14.141Z,88.50
2018-04-30T02:17:41.985Z,88.90
2018-04-30T02:20:10.262Z,89.40
2018-04-30T02:22:38.525Z,89.70
2018-04-30T02:25:07.078Z,89.90
2018-04-30T02:27:34.669Z,89.90
2018-04-30T02:30:02.192Z,90.00
2018-04-30T02:32:30.030Z,90.20
2018-04-30T02:34:57.543Z,90.20
2018-04-30T02:37:25.642Z,90.40
2018-04-30T02:39:53.221Z,90.50
2018-04-30T02:42:20.738Z,90.60
2018-04-30T02:44:48.269Z,90.60
2018-04-30T02:47:16.764Z,90.70
2018-04-30T02:49:44.279Z,90.70
2018-04-30T02:52:11.804Z,90.80
2018-04-30T02:54:39.329Z,90.90
2018-04-30T02:57:06.886Z,90.90
2018-04-30T02:59:34.414Z,90.90
2018-04-30T03:02:01.956Z,91.00
2018-04-30T03:04:29.527Z,91.00
2018-04-30T03:06:57.055Z,91.10
2018-04-30T03:09:24.884Z,91.00
2018-04-30T03:11:52.451Z,91.10
2018-04-30T03:14:20.019Z,91.10
2018-04-30T03:16:47.636Z,91.10
2018-04-30T03:19:15.464Z,91.20
2018-04-30T03:21:43.024Z,91.20
2018-04-30T03:24:10.557Z,91.20
2018-04-30T03:26:38.081Z,91.20
2018-04-30T03:29:05.706Z,91.20
2018-04-30T03:31:33.255Z,91.20
2018-04-30T03:34:00.780Z,91.20
2018-04-30T03:36:28.318Z,91.10
2018-04-30T03:38:55.840Z,91.10
2018-04-30T03:41:23.448Z,91.00
2018-04-30T03:43:50.998Z,91.00
2018-04-30T03:46:18.520Z,90.90
2018-04-30T03:48:46.044Z,90.70
2018-04-30T03:51:14.666Z,90.70
2018-04-30T03:53:42.196Z,90.50
2018-04-30T03:56:09.734Z,90.40
2018-04-30T03:58:37.503Z,90.20
2018-04-30T04:01:16.939Z,90.00
2018-04-30T04:03:56.366Z,89.50
2018-04-30T04:06:29.834Z,89.10
2018-04-30T04:08:57.537Z,88.70
2018-04-30T04:11:25.055Z,88.20
2018-04-30T04:13:53.388Z,87.30
2018-04-30T04:16:20.936Z,87.30
2018-04-30T04:18:48.618Z,86.20
2018-04-30T04:21:17.124Z,85.30
2018-04-30T04:23:45.473Z,81.50
2018-04-30T04:26:13.579Z,81.50
2018-04-30T04:28:41.967Z,79.00
2018-04-30T04:31:09.516Z,76.80
2018-04-30T04:33:37.107Z,75.40
2018-04-30T04:36:05.463Z,73.10
2018-04-30T04:38:33.019Z,73.00
2018-04-30T04:41:00.535Z,71.20
2018-04-30T04:43:28.115Z,69.70
2018-04-30T04:45:55.661Z,67.80
2018-04-30T04:48:23.184Z,65.50
2018-04-30T04:50:51.492Z,62.40
2018-04-30T04:53:19.402Z,62.40
2018-04-30T04:55:47.007Z,59.60
2018-04-30T04:58:14.682Z,59.10
2018-04-30T05:00:42.269Z,57.70
2018-04-30T05:03:10.211Z,56.70
2018-04-30T05:05:37.835Z,57.90
2018-04-30T05:08:06.162Z,57.10
2018-04-30T05:10:33.675Z,57.10
2018-04-30T05:13:01.969Z,55.10
2018-04-30T05:15:29.476Z,54.50
2018-04-30T05:17:57.009Z,53.60
2018-04-30T05:20:24.564Z,53.40
2018-04-30T05:22:52.093Z,52.10
2018-04-30T05:25:19.709Z,49.80
2018-04-30T05:27:47.417Z,49.30
2018-04-30T05:30:14.948Z,47.70
2018-04-30T05:32:42.519Z,47.00
2018-04-30T05:35:10.996Z,44.70
2018-04-30T05:37:38.576Z,43.60
2018-04-30T05:40:06.188Z,42.90
2018-04-30T05:42:33.852Z,42.50
2018-04-30T05:45:01.439Z,42.60
2018-04-30T05:47:29.829Z,44.90
2018-04-30T05:49:58.191Z,46.20
2018-04-30T05:52:25.710Z,46.20
2018-04-30T05:54:53.248Z,48.90
2018-04-30T05:57:20.977Z,50.70
2018-04-30T05:59:48.574Z,48.70
2018-04-30T06:02:16.203Z,45.60
2018-04-30T06:04:43.762Z,45.20
2018-04-30T06:07:11.430Z,46.80
2018-04-30T06:09:38.984Z,49.00
2018-04-30T06:12:06.540Z,47.30
2018-04-30T06:14:34.011Z,45.00
2018-04-30T06:17:02.442Z,41.30
2018-04-30T06:19:29.956Z,41.30
2018-04-30T06:21:57.500Z,38.90
2018-04-30T06:24:25.041Z,37.00
2018-04-30T06:26:52.656Z,36.30
2018-04-30T06:29:20.854Z,35.10
2018-04-30T06:31:48.399Z,35.10
2018-04-30T06:34:15.984Z,35.00
2018-04-30T06:36:44.826Z,35.00
2018-04-30T06:39:13.128Z,34.90
2018-04-30T06:41:40.747Z,34.90
2018-04-30T06:44:08.302Z,33.90
2018-04-30T06:46:35.842Z,33.50
2018-04-30T06:49:03.355Z,32.90
2018-04-30T06:51:30.997Z,32.40
2018-04-30T06:53:58.489Z,32.20
2018-04-30T06:56:26.009Z,32.90
2018-04-30T06:58:53.536Z,33.40
2018-04-30T07:01:21.103Z,34.10
2018-04-30T07:03:48.850Z,35.70
2018-04-30T07:06:16.397Z,36.30
2018-04-30T07:08:44.035Z,35.90
2018-04-30T07:11:12.924Z,35.70
2018-04-30T07:13:41.355Z,36.30
2018-04-30T07:16:08.898Z,36.30
2018-04-30T07:18:36.420Z,37.10
2018-04-30T07:21:04.125Z,37.60
2018-04-30T07:23:32.642Z,37.80
2018-04-30T07:26:00.287Z,38.00
2018-04-30T07:28:27.851Z,37.90
2018-04-30T07:30:55.385Z,37.80
2018-04-30T07:33:22.917Z,37.70
2018-04-30T07:35:50.535Z,38.10
2018-04-30T07:38:18.065Z,38.10
2018-04-30T07:40:46.347Z,38.20
2018-04-30T07:43:13.903Z,38.70
2018-04-30T07:45:41.567Z,40.00
2018-04-30T07:48:09.139Z,40.50
2018-04-30T07:50:37.040Z,41.00
2018-04-30T07:53:06.425Z,40.40
2018-04-30T07:55:35.226Z,40.40
2018-04-30T07:58:03.467Z,40.40
2018-04-30T08:00:31.029Z,40.40
2018-04-30T08:02:58.689Z,40.40
2018-04-30T08:05:26.229Z,41.00
2018-04-30T08:07:53.858Z,41.40
2018-04-30T08:10:21.419Z,40.70
2018-04-30T08:12:48.972Z,40.40
2018-04-30T08:15:17.328Z,41.50
2018-04-30T08:17:44.920Z,41.50
2018-04-30T08:20:12.529Z,42.10
2018-04-30T08:22:40.398Z,42.10
2018-04-30T08:25:08.146Z,42.80
2018-04-30T08:27:35.929Z,44.00
2018-04-30T08:30:03.475Z,44.30
2018-04-30T08:32:31.028Z,44.80
2018-04-30T08:34:59.324Z,45.60
2018-04-30T08:37:27.080Z,45.60
2018-04-30T08:39:54.613Z,46.60
2018-04-30T08:42:22.139Z,47.10
2018-04-30T08:44:49.747Z,46.80
2018-04-30T08:47:18.094Z,47.20
2018-04-30T08:49:45.648Z,47.20
2018-04-30T08:52:13.422Z,46.90
2018-04-30T08:54:40.904Z,47.80
2018-04-30T08:57:08.462Z,47.00
2018-04-30T08:59:36.113Z,47.50
2018-04-30T09:02:03.680Z,47.70
2018-04-30T09:04:31.966Z,48.20
2018-04-30T09:06:59.538Z,48.20
2018-04-30T09:09:27.270Z,48.10
2018-04-30T09:11:55.549Z,47.90
2018-04-30T09:14:23.125Z,48.80
2018-04-30T09:16:50.719Z,49.20
2018-04-30T09:19:18.756Z,48.80
2018-04-30T09:21:46.660Z,49.40
2018-04-30T09:24:14.191Z,49.80
2018-04-30T09:26:42.476Z,48.60
2018-04-30T09:29:10.883Z,49.10
2018-04-30T09:31:38.748Z,49.10
2018-04-30T09:34:06.924Z,49.30
2018-04-30T09:36:34.648Z,50.00
2018-04-30T09:39:02.523Z,49.50
2018-04-30T09:41:30.067Z,48.40
2018-04-30T09:43:58.417Z,49.20
2018-04-30T09:46:26.055Z,49.10
2018-04-30T09:48:54.311Z,48.90
2018-04-30T09:51:21.843Z,49.00
2018-04-30T09:53:49.447Z,49.70
2018-04-30T09:56:17.079Z,49.60
2018-04-30T09:58:46.525Z,49.70
2018-04-30T10:01:14.096Z,49.60
2018-04-30T10:03:41.686Z,49.80
2018-04-30T10:06:09.338Z,48.50
2018-04-30T10:08:36.963Z,49.30
2018-04-30T10:11:04.561Z,47.70
2018-04-30T10:13:32.104Z,47.60
2018-04-30T10:15:59.857Z,47.70
2018-04-30T10:18:27.384Z,48.10
2018-04-30T10:20:54.919Z,48.90
2018-04-30T10:23:23.402Z,50.70
2018-04-30T10:25:50.964Z,50.70
2018-04-30T10:28:19.393Z,49.90
2018-04-30T10:30:47.085Z,50.00
2018-04-30T10:33:14.768Z,49.70
2018-04-30T10:35:43.146Z,50.40
2018-04-30T10:38:10.693Z,50.40
2018-04-30T10:40:38.449Z,50.20
2018-04-30T10:43:05.977Z,50.50
2018-04-30T10:45:34.219Z,49.10
2018-04-30T10:48:01.752Z,50.60
2018-04-30T10:50:29.309Z,51.70
2018-04-30T10:52:57.035Z,51.70
2018-04-30T10:55:24.687Z,50.90
2018-04-30T10:57:52.348Z,49.20
2018-04-30T11:00:19.930Z,47.80
2018-04-30T11:02:47.493Z,46.50
2018-04-30T11:05:15.725Z,46.30
2018-04-30T11:07:44.178Z,46.00
2018-04-30T11:10:11.796Z,46.00
2018-04-30T11:12:40.353Z,46.40
2018-04-30T11:15:09.515Z,47.70
2018-04-30T11:17:37.287Z,47.60
2018-04-30T11:20:04.883Z,48.40
2018-04-30T11:22:32.402Z,48.90
2018-04-30T11:24:59.980Z,49.10
2018-04-30T11:27:27.546Z,48.10
2018-04-30T11:29:56.130Z,47.70
2018-04-30T11:32:23.860Z,47.70
2018-04-30T11:34:51.914Z,48.10
2018-04-30T11:37:19.460Z,49.00
2018-04-30T11:39:47.036Z,48.70
2018-04-30T11:42:14.776Z,48.90
2018-04-30T11:44:42.392Z,48.00
2018-04-30T11:47:10.063Z,47.50
2018-04-30T11:49:37.634Z,47.10
2018-04-30T11:52:05.218Z,46.90
2018-04-30T11:54:32.853Z,46.40
2018-04-30T11:57:01.555Z,46.80
2018-04-30T11:59:29.222Z,46.80
2018-04-30T12:01:56.869Z,45.70
2018-04-30T12:04:24.742Z,44.90
2018-04-30T12:06:52.449Z,45.20
2018-04-30T12:09:20.075Z,45.80
2018-04-30T12:11:48.490Z,44.80
2018-04-30T12:14:17.552Z,44.70
2018-04-30T12:16:46.008Z,44.80
2018-04-30T12:19:13.678Z,44.00
2018-04-30T12:21:42.123Z,46.70
2018-04-30T12:24:09.659Z,46.70
2018-04-30T12:26:37.322Z,47.30
2018-04-30T12:29:04.900Z,49.20
2018-04-30T12:31:32.599Z,49.20
2018-04-30T12:34:00.442Z,48.40
2018-04-30T12:36:28.146Z,46.80
2018-04-30T12:38:56.257Z,43.60
2018-04-30T12:41:24.018Z,43.20
2018-04-30T12:43:51.628Z,42.80
2018-04-30T12:46:19.189Z,41.50
2018-04-30T12:48:48.397Z,41.10
2018-04-30T12:51:16.164Z,41.10
2018-04-30T12:53:43.928Z,41.30
2018-04-30T12:56:11.491Z,41.70
2018-04-30T12:58:39.119Z,43.00
2018-04-30T13:01:06.741Z,42.30
2018-04-30T13:03:34.327Z,44.20
2018-04-30T13:06:01.995Z,44.30
2018-04-30T13:08:29.582Z,43.00
2018-04-30T13:10:57.135Z,44.80
2018-04-30T13:13:24.690Z,44.20
2018-04-30T13:15:52.292Z,43.90
2018-04-30T13:18:19.900Z,45.60
2018-04-30T13:20:47.486Z,45.60
2018-04-30T13:23:15.159Z,47.00
2018-04-30T13:25:42.928Z,48.10
2018-04-30T13:28:10.901Z,47.90
2018-04-30T13:30:39.392Z,48.40
2018-04-30T13:33:07.977Z,49.10
2018-04-30T13:35:35.770Z,49.10
2018-04-30T13:38:03.283Z,47.70
2018-04-30T13:40:30.823Z,48.60
2018-04-30T13:42:58.884Z,47.30
2018-04-30T13:45:26.507Z,47.20
2018-04-30T13:47:54.681Z,45.30
2018-04-30T13:50:22.193Z,44.70
2018-04-30T13:52:49.831Z,43.60
2018-04-30T13:55:19.074Z,44.40
2018-04-30T13:57:47.469Z,44.20
2018-04-30T14:00:15.875Z,43.40
2018-04-30T14:02:43.559Z,43.30
2018-04-30T14:05:11.268Z,42.30
2018-04-30T14:07:39.599Z,42.10
2018-04-30T14:10:07.155Z,42.10
2018-04-30T14:12:35.109Z,41.80
2018-04-30T14:15:02.751Z,41.00
2018-04-30T14:17:30.557Z,41.20
2018-04-30T14:19:58.108Z,41.00
2018-04-30T14:22:25.645Z,40.70
2018-04-30T14:24:53.186Z,40.30
2018-04-30T14:27:20.758Z,39.20
2018-04-30T14:29:48.431Z,41.10
2018-04-30T14:32:15.951Z,41.30
2018-04-30T14:34:43.593Z,41.00
2018-04-30T14:37:11.329Z,39.70
2018-04-30T14:39:38.950Z,40.50
2018-04-30T14:42:06.671Z,40.30
2018-04-30T14:44:34.263Z,40.80
2018-04-30T14:47:03.033Z,41.90
2018-04-30T14:49:30.643Z,42.00
2018-04-30T14:51:58.597Z,42.30
2018-04-30T14:54:26.126Z,42.30
2018-04-30T14:56:53.721Z,42.30
2018-04-30T14:59:22.039Z,42.10
2018-04-30T15:01:49.594Z,42.20
2018-04-30T15:04:17.183Z,41.00
2018-04-30T15:06:44.840Z,42.70
2018-04-30T15:09:12.642Z,40.50
2018-04-30T15:11:41.093Z,40.70
2018-04-30T15:14:08.629Z,40.80
2018-04-30T15:16:36.179Z,42.40
2018-04-30T15:19:03.969Z,42.00
2018-04-30T15:21:31.994Z,43.20
2018-04-30T15:24:00.915Z,42.40
2018-04-30T15:26:28.456Z,42.10
2018-04-30T15:28:55.975Z,41.60
2018-04-30T15:31:24.549Z,44.10
2018-04-30T15:33:52.059Z,43.50
2018-04-30T15:36:19.835Z,42.00
2018-04-30T15:38:47.397Z,42.80
2018-04-30T15:41:15.235Z,41.90
2018-04-30T15:43:42.989Z,41.20
2018-04-30T15:46:11.399Z,41.80
2018-04-30T15:48:38.949Z,41.70
2018-04-30T15:51:06.496Z,41.00
2018-04-30T15:53:34.095Z,42.20
2018-04-30T15:56:01.755Z,42.00
2018-04-30T15:58:29.369Z,42.10
2018-04-30T16:00:56.925Z,41.40
2018-04-30T16:03:24.436Z,42.10
2018-04-30T16:05:52.199Z,40.90
2018-04-30T16:08:20.036Z,41.40
2018-04-30T16:10:47.553Z,40.80
2018-04-30T16:13:16.560Z,41.80
2018-04-30T16:15:44.153Z,41.30
2018-04-30T16:18:11.706Z,41.40
2018-04-30T16:20:40.084Z,40.70
2018-04-30T16:23:07.622Z,40.70
2018-04-30T16:25:35.226Z,40.10
2018-04-30T16:28:02.904Z,40.80
2018-04-30T16:30:30.447Z,39.90
2018-04-30T16:32:58.639Z,39.30
2018-04-30T16:35:26.230Z,40.90
2018-04-30T16:37:53.773Z,40.30
2018-04-30T16:40:21.790Z,40.20
2018-04-30T16:42:50.140Z,40.30
2018-04-30T16:45:17.936Z,40.60
2018-04-30T16:47:46.181Z,41.20
2018-04-30T16:50:14.204Z,41.30
2018-04-30T16:52:41.731Z,41.50
2018-04-30T16:55:10.045Z,42.90
2018-04-30T16:57:37.585Z,42.20
2018-04-30T17:00:06.696Z,43.40
2018-04-30T17:02:34.424Z,43.30
2018-04-30T17:05:02.767Z,43.40
2018-04-30T17:07:30.263Z,43.40
2018-04-30T17:09:58.566Z,43.20
2018-04-30T17:12:26.112Z,43.20
2018-04-30T17:14:53.773Z,44.40
2018-04-30T17:17:22.087Z,44.10
2018-04-30T17:19:49.640Z,44.10
2018-04-30T17:22:17.212Z,44.40
2018-04-30T17:24:44.860Z,43.80
2018-04-30T17:27:12.572Z,43.80
2018-04-30T17:29:40.163Z,43.20
2018-04-30T17:32:07.714Z,45.20
2018-04-30T17:34:35.280Z,44.10
2018-04-30T17:37:02.880Z,43.60
2018-04-30T17:39:30.447Z,44.30
2018-04-30T17:41:58.008Z,43.90
2018-04-30T17:44:25.733Z,44.50
2018-04-30T17:46:54.288Z,45.20
2018-04-30T17:49:21.878Z,45.10
2018-04-30T17:51:50.392Z,44.60
2018-04-30T17:54:18.001Z,44.70
2018-04-30T17:56:46.515Z,46.00
2018-04-30T17:59:14.282Z,46.00
2018-04-30T18:01:41.843Z,45.30
2018-04-30T18:04:09.927Z,45.90
2018-04-30T18:06:37.507Z,46.40
2018-04-30T18:09:05.984Z,45.60
2018-04-30T18:11:33.517Z,45.90
2018-04-30T18:14:01.079Z,45.50
2018-04-30T18:16:28.618Z,46.10
2018-04-30T18:18:56.179Z,46.10
2018-04-30T18:21:23.704Z,46.30
2018-04-30T18:23:51.250Z,46.90
2018-04-30T18:26:18.738Z,46.80
2018-04-30T18:28:46.278Z,46.80
2018-04-30T18:31:14.179Z,47.40
2018-04-30T18:33:41.722Z,47.30
2018-04-30T18:36:09.373Z,47.80
2018-04-30T18:38:36.966Z,48.00
2018-04-30T18:41:04.536Z,47.90
2018-04-30T18:43:32.176Z,48.00
2018-04-30T18:46:01.046Z,47.80
2018-04-30T18:48:30.503Z,47.80
2018-04-30T18:50:58.089Z,48.40
2018-04-30T18:53:25.688Z,47.90
2018-04-30T18:55:54.178Z,49.00
2018-04-30T18:58:22.518Z,49.30
2018-04-30T19:00:50.071Z,49.30
2018-04-30T19:03:17.648Z,49.30
2018-04-30T19:05:45.198Z,49.30
2018-04-30T19:08:13.540Z,49.80
2018-04-30T19:10:41.090Z,49.80
2018-04-30T19:13:08.917Z,48.70
2018-04-30T19:15:36.569Z,49.70
2018-04-30T19:18:04.096Z,48.90
2018-04-30T19:20:31.618Z,49.70
2018-04-30T19:22:59.913Z,49.50
2018-04-30T19:25:27.432Z,49.50
2018-04-30T19:27:56.029Z,49.60
2018-04-30T19:30:25.001Z,49.90
2018-04-30T19:32:52.553Z,49.30
2018-04-30T19:35:20.211Z,50.20
2018-04-30T19:37:48.136Z,49.70
2018-04-30T19:40:15.851Z,50.20
2018-04-30T19:42:43.415Z,50.50
2018-04-30T19:45:10.965Z,50.60
2018-04-30T19:47:38.524Z,50.50
2018-04-30T19:50:06.137Z,51.40
2018-04-30T19:52:35.207Z,50.50
2018-04-30T19:55:02.765Z,50.50
2018-04-30T19:57:31.083Z,51.30
2018-04-30T19:59:58.674Z,50.50
2018-04-30T20:02:26.261Z,51.10
2018-04-30T20:04:53.915Z,50.80
2018-04-30T20:07:21.564Z,50.90
2018-04-30T20:09:49.110Z,51.80
2018-04-30T20:12:16.763Z,51.10
2018-04-30T20:14:44.348Z,51.60
2018-04-30T20:17:11.911Z,51.80
2018-04-30T20:19:39.508Z,51.50
2018-04-30T20:22:08.693Z,52.20
2018-04-30T20:24:36.268Z,52.20
2018-04-30T20:27:04.627Z,52.30
2018-04-30T20:29:32.149Z,52.30
2018-04-30T20:31:59.730Z,52.30
2018-04-30T20:34:27.256Z,51.80
2018-04-30T20:36:54.978Z,52.00
2018-04-30T20:39:22.562Z,52.40
2018-04-30T20:41:50.105Z,52.60
2018-04-30T20:44:17.788Z,52.80
2018-04-30T20:46:46.232Z,52.70
2018-04-30T20:49:13.883Z,52.70
2018-04-30T20:51:41.714Z,52.70
2018-04-30T20:54:09.288Z,53.60
2018-04-30T20:56:36.918Z,53.30
2018-04-30T20:59:04.477Z,53.50
2018-04-30T21:01:32.010Z,53.80
2018-04-30T21:03:59.578Z,53.80
2018-04-30T21:06:28.799Z,54.90
2018-04-30T21:09:07.986Z,54.80
2018-04-30T21:11:35.632Z,54.60
2018-04-30T21:14:03.162Z,55.40
2018-04-30T21:16:30.721Z,55.20
2018-04-30T21:18:58.867Z,55.80
2018-04-30T21:21:26.442Z,55.70
2018-04-30T21:23:53.953Z,56.10
2018-04-30T21:26:21.603Z,56.30
2018-04-30T21:28:49.244Z,57.00
2018-04-30T21:31:16.820Z,57.20
2018-04-30T21:33:44.473Z,57.20
2018-04-30T21:36:12.096Z,57.90
2018-04-30T21:38:40.428Z,58.50
2018-04-30T21:41:08.103Z,58.50
2018-04-30T21:43:35.716Z,58.60
2018-04-30T21:46:03.492Z,59.10
2018-04-30T21:48:31.075Z,59.20
2018-04-30T21:50:58.629Z,59.80
2018-04-30T21:53:26.801Z,59.80
2018-04-30T21:55:54.337Z,60.20
2018-04-30T21:58:21.859Z,60.60
2018-04-30T22:00:49.415Z,60.70
2018-04-30T22:03:16.948Z,61.30
2018-04-30T22:05:44.542Z,61.80
2018-04-30T22:08:12.066Z,62.20
2018-04-30T22:10:39.585Z,62.40
2018-04-30T22:13:07.899Z,62.70
2018-04-30T22:15:35.534Z,62.70
2018-04-30T22:18:03.816Z,63.50
2018-04-30T22:20:31.398Z,63.50
2018-04-30T22:22:58.982Z,63.50
2018-04-30T22:25:26.522Z,63.50
2018-04-30T22:27:54.076Z,63.50
2018-04-30T22:30:21.702Z,63.50
2018-04-30T22:32:49.326Z,63.90
2018-04-30T22:35:16.850Z,64.40
2018-04-30T22:37:44.358Z,64.40
2018-04-30T22:40:11.919Z,64.40
2018-04-30T22:42:39.432Z,64.60
2018-04-30T22:45:06.963Z,64.90
2018-04-30T22:47:35.317Z,65.10
2018-04-30T22:50:02.964Z,65.90
2018-04-30T22:52:30.499Z,65.10
2018-04-30T22:54:58.152Z,65.30
2018-04-30T22:57:25.746Z,65.60
2018-04-30T22:59:53.258Z,65.60
2018-04-30T23:02:20.752Z,65.70
2018-04-30T23:04:48.265Z,65.90
2018-04-30T23:07:16.011Z,65.60
2018-04-30T23:09:43.538Z,65.10
2018-04-30T23:12:11.028Z,64.90
2018-04-30T23:14:38.529Z,64.90
2018-04-30T23:17:06.052Z,64.80
2018-04-30T23:19:34.367Z,65.80
2018-04-30T23:22:01.896Z,65.80
2018-04-30T23:24:30.296Z,66.40
2018-04-30T23:26:57.816Z,66.40
2018-04-30T23:29:25.462Z,66.40
2018-04-30T23:31:52.994Z,66.80
2018-04-30T23:34:20.502Z,66.30
2018-04-30T23:36:48.143Z,66.60
2018-04-30T23:39:16.184Z,67.20
2018-04-30T23:41:43.781Z,67.60
2018-04-30T23:44:11.506Z,67.40
2018-04-30T23:46:39.108Z,67.70
2018-04-30T23:49:06.983Z,67.90
2018-04-30T23:51:34.599Z,67.70
2018-04-30T23:54:02.146Z,67.80
2018-04-30T23:56:29.674Z,67.40
2018-04-30T23:58:57.449Z,66.70
